createdAt,value
2023-07-03T00:00:12.908Z,101041.31
2023-07-03T00:02:40.602Z,101036.78
2023-07-03T00:05:09.863Z,101037.66
2023-07-03T00:07:40.350Z,101033.50
2023-07-03T00:10:08.993Z,101030.06
2023-07-03T00:12:36.024Z,101028.41
2023-07-03T00:15:03.155Z,101019.66
2023-07-03T00:17:29.785Z,101018.13
2023-07-03T00:19:56.460Z,101014.56
2023-07-03T00:22:23.163Z,101017.34
2023-07-03T00:24:49.811Z,101014.94
2023-07-03T00:27:16.448Z,101013.28
2023-07-03T00:29:43.007Z,101017.72
2023-07-03T00:32:09.606Z,101013.41
2023-07-03T00:34:36.144Z,101012.53
2023-07-03T00:37:02.888Z,101015.59
2023-07-03T00:39:29.523Z,101018.19
2023-07-03T00:41:56.295Z,101021.66
2023-07-03T00:44:23.900Z,101015.66
2023-07-03T00:46:52.196Z,101014.81
2023-07-03T00:49:21.518Z,101020.31
2023-07-03T00:51:54.649Z,101016.91
2023-07-03T00:54:21.808Z,101021.31
2023-07-03T00:56:48.575Z,101019.75
2023-07-03T00:59:16.550Z,101019.75
2023-07-03T01:01:56.607Z,101009.09
2023-07-03T01:04:32.350Z,101018.13
2023-07-03T01:07:08.939Z,101024.44
2023-07-03T01:09:49.157Z,101013.81
2023-07-03T01:12:17.759Z,101023.78
2023-07-03T01:14:46.942Z,101010.59
2023-07-03T01:17:16.189Z,101023.09
2023-07-03T01:19:46.514Z,101021.66
2023-07-03T01:22:50.369Z,101014.53
2023-07-03T01:25:23.477Z,101012.88
2023-07-03T01:27:54.298Z,101014.22
2023-07-03T01:30:23.795Z,101017.94
2023-07-03T01:32:54.501Z,101008.22
2023-07-03T01:35:23.878Z,101013.53
2023-07-03T01:37:54.232Z,101009.19
2023-07-03T01:40:25.813Z,101005.72
2023-07-03T01:42:55.847Z,101003.81
2023-07-03T01:45:22.756Z,101006.66
2023-07-03T01:47:49.462Z,100999.66
2023-07-03T01:50:24.768Z,100997.75
2023-07-03T01:52:59.020Z,100996.13
2023-07-03T01:55:44.386Z,100996.03
2023-07-03T01:58:43.401Z,100992.56
2023-07-03T02:01:21.680Z,100998.03
2023-07-03T02:04:03.044Z,101000.72
2023-07-03T02:06:35.611Z,100998.88
2023-07-03T02:09:03.124Z,100995.41
2023-07-03T02:11:29.896Z,101004.53
2023-07-03T02:13:56.484Z,101000.09
2023-07-03T02:16:23.145Z,100993.97
2023-07-03T02:18:50.505Z,100994.06
2023-07-03T02:21:17.861Z,101004.97
2023-07-03T02:23:45.277Z,101006.72
2023-07-03T02:26:11.953Z,101011.38
2023-07-03T02:28:38.578Z,101005.84
2023-07-03T02:31:05.211Z,101004.97
2023-07-03T02:33:32.196Z,101010.53
2023-07-03T02:36:02.670Z,101006.97
2023-07-03T02:38:29.271Z,100995.34
2023-07-03T02:40:55.929Z,100992.78
2023-07-03T02:43:22.506Z,100997.06
2023-07-03T02:45:49.906Z,100999.78
2023-07-03T02:48:16.935Z,101001.41
2023-07-03T02:50:43.713Z,101003.06
2023-07-03T02:53:10.327Z,100996.13
2023-07-03T02:55:37.068Z,100995.19
2023-07-03T02:58:03.901Z,101001.50
2023-07-03T03:00:30.688Z,100991.63
2023-07-03T03:02:57.346Z,100997.06
2023-07-03T03:05:23.929Z,101004.19
2023-07-03T03:07:50.540Z,100998.03
2023-07-03T03:10:17.125Z,100994.59
2023-07-03T03:12:43.782Z,100995.47
2023-07-03T03:15:10.800Z,100995.47
2023-07-03T03:17:37.612Z,100983.13
2023-07-03T03:20:05.270Z,100993.91
2023-07-03T03:22:31.896Z,100992.06
2023-07-03T03:24:59.635Z,100988.53
2023-07-03T03:27:26.254Z,100989.47
2023-07-03T03:29:52.889Z,100988.53
2023-07-03T03:32:19.609Z,100992.06
2023-07-03T03:34:46.194Z,100993.81
2023-07-03T03:37:12.901Z,100999.28
2023-07-03T03:39:39.531Z,100992.00
2023-07-03T03:42:06.368Z,100988.44
2023-07-03T03:44:32.988Z,100982.09
2023-07-03T03:46:59.598Z,100987.47
2023-07-03T03:49:26.191Z,100986.63
2023-07-03T03:51:52.741Z,100990.09
2023-07-03T03:54:20.335Z,100992.84
2023-07-03T03:56:47.128Z,100983.84
2023-07-03T03:59:13.792Z,100978.47
2023-07-03T04:01:40.855Z,100972.09
2023-07-03T04:04:07.456Z,100982.75
2023-07-03T04:06:36.481Z,100991.69
2023-07-03T04:09:03.124Z,100993.34
2023-07-03T04:11:31.432Z,101001.41
2023-07-03T04:13:58.313Z,100999.69
2023-07-03T04:16:27.658Z,101002.38
2023-07-03T04:18:54.310Z,101010.44
2023-07-03T04:21:21.431Z,101011.22
2023-07-03T04:23:48.630Z,101010.28
2023-07-03T04:26:16.400Z,101015.66
2023-07-03T04:28:43.014Z,101020.16
2023-07-03T04:31:09.684Z,101016.69
2023-07-03T04:33:36.325Z,101021.09
2023-07-03T04:36:03.192Z,101014.88
2023-07-03T04:38:29.733Z,101018.34
2023-07-03T04:40:57.562Z,101020.16
2023-07-03T04:43:24.254Z,101022.94
2023-07-03T04:45:53.622Z,101017.56
2023-07-03T04:48:20.719Z,101026.66
2023-07-03T04:50:49.968Z,101036.47
2023-07-03T04:53:21.897Z,101031.88
2023-07-03T04:55:49.780Z,101040.72
2023-07-03T04:58:16.778Z,101027.34
2023-07-03T05:00:43.455Z,101027.19
2023-07-03T05:03:10.456Z,101025.44
2023-07-03T05:05:37.296Z,101032.56
2023-07-03T05:08:04.202Z,101024.59
2023-07-03T05:10:31.328Z,101041.75
2023-07-03T05:12:58.109Z,101038.56
2023-07-03T05:15:26.150Z,101031.44
2023-07-03T05:17:57.701Z,101040.47
2023-07-03T05:20:26.846Z,101031.78
2023-07-03T05:22:54.050Z,101033.59
2023-07-03T05:25:20.804Z,101039.84
2023-07-03T05:27:47.865Z,101036.91
2023-07-03T05:30:14.948Z,101043.75
2023-07-03T05:32:41.959Z,101042.19
2023-07-03T05:35:09.460Z,101041.06
2023-07-03T05:37:39.541Z,101047.31
2023-07-03T05:40:08.565Z,101044.34
2023-07-03T05:42:36.903Z,101051.19
2023-07-03T05:45:04.916Z,101046.50
2023-07-03T05:47:31.659Z,101048.88
2023-07-03T05:49:58.765Z,101050.31
2023-07-03T05:52:25.637Z,101047.38
2023-07-03T05:54:52.236Z,101045.00
2023-07-03T05:57:18.851Z,101042.78
2023-07-03T05:59:45.522Z,101048.88
2023-07-03T06:02:15.300Z,101052.69
2023-07-03T06:04:42.388Z,101063.88
2023-07-03T06:07:10.328Z,101056.41
2023-07-03T06:09:37.502Z,101060.69
2023-07-03T06:12:05.813Z,101052.66
2023-07-03T06:14:33.708Z,101050.06
2023-07-03T06:17:01.791Z,101052.75
2023-07-03T06:19:29.669Z,101058.81
2023-07-03T06:21:56.942Z,101061.44
2023-07-03T06:24:24.081Z,101066.97
2023-07-03T06:26:51.558Z,101063.50
2023-07-03T06:29:18.195Z,101067.69
2023-07-03T06:31:44.793Z,101072.81
2023-07-03T06:34:11.407Z,101076.44
2023-07-03T06:36:38.084Z,101069.16
2023-07-03T06:39:05.914Z,101063.78
2023-07-03T06:41:35.775Z,101070.69
2023-07-03T06:44:04.681Z,101062.56
2023-07-03T06:46:31.681Z,101064.91
2023-07-03T06:48:58.658Z,101050.66
2023-07-03T06:51:26.033Z,101055.09
2023-07-03T06:53:53.079Z,101057.22
2023-07-03T06:56:21.646Z,101067.34
2023-07-03T06:58:51.816Z,101064.25
2023-07-03T07:01:22.091Z,101064.16
2023-07-03T07:03:49.206Z,101061.53
2023-07-03T07:06:26.464Z,101059.97
2023-07-03T07:08:54.585Z,101056.31
2023-07-03T07:11:25.091Z,101064.25
2023-07-03T07:13:53.299Z,101057.25
2023-07-03T07:16:35.901Z,101064.31
2023-07-03T07:19:05.232Z,101059.38
2023-07-03T07:21:33.979Z,101055.78
2023-07-03T07:24:04.362Z,101058.84
2023-07-03T07:26:34.870Z,101065.75
2023-07-03T07:29:02.391Z,101066.91
2023-07-03T07:31:30.110Z,101071.03
2023-07-03T07:33:57.208Z,101067.16
2023-07-03T07:36:26.484Z,101072.66
2023-07-03T07:38:56.742Z,101070.16
2023-07-03T07:41:26.267Z,101061.44
2023-07-03T07:43:54.724Z,101061.44
2023-07-03T07:46:22.432Z,101071.22
2023-07-03T07:48:49.115Z,101079.09
2023-07-03T07:51:16.026Z,101078.53
2023-07-03T07:53:42.696Z,101085.13
2023-07-03T07:56:11.270Z,101083.44
2023-07-03T07:58:39.042Z,101071.63
2023-07-03T08:01:07.134Z,101085.22
2023-07-03T08:03:34.025Z,101076.69
2023-07-03T08:06:04.504Z,101076.53
2023-07-03T08:08:33.313Z,101073.25
2023-07-03T08:11:02.791Z,101061.34
2023-07-03T08:13:31.510Z,101061.16
2023-07-03T08:15:58.724Z,101061.09
2023-07-03T08:18:27.004Z,101067.59
2023-07-03T08:20:54.360Z,101064.50
2023-07-03T08:23:22.161Z,101078.06
2023-07-03T08:25:54.350Z,101070.41
2023-07-03T08:28:22.314Z,101082.41
2023-07-03T08:30:49.493Z,101082.28
2023-07-03T08:33:17.203Z,101084.84
2023-07-03T08:38:14.038Z,101094.91
2023-07-03T08:40:43.102Z,101092.06
2023-07-03T08:43:16.411Z,101095.69
2023-07-03T08:45:47.589Z,101098.75
2023-07-03T08:48:19.595Z,101109.81
2023-07-03T08:50:51.681Z,101113.59
2023-07-03T08:53:23.439Z,101110.16
2023-07-03T08:56:05.151Z,101109.47
2023-07-03T08:58:32.864Z,101112.34
2023-07-03T09:01:21.929Z,101108.78
2023-07-03T09:03:58.028Z,101118.59
2023-07-03T09:06:41.573Z,101102.88
2023-07-03T09:09:35.286Z,101101.22
2023-07-03T09:12:04.894Z,101107.69
2023-07-03T09:14:43.244Z,101112.66
2023-07-03T09:17:12.601Z,101112.97
2023-07-03T09:19:48.459Z,101114.25
2023-07-03T09:22:47.525Z,101117.34
2023-07-03T09:25:24.060Z,101116.66
2023-07-03T09:27:55.864Z,101111.31
2023-07-03T09:30:22.554Z,101112.13
2023-07-03T09:32:49.188Z,101107.22
2023-07-03T09:35:21.715Z,101098.66
2023-07-03T09:37:58.226Z,101099.53
2023-07-03T09:40:28.051Z,101107.16
2023-07-03T09:42:54.852Z,101105.72
2023-07-03T09:45:26.482Z,101102.59
2023-07-03T09:48:00.071Z,101111.16
2023-07-03T09:50:36.084Z,101110.25
2023-07-03T09:53:09.880Z,101114.66
2023-07-03T09:55:37.722Z,101126.91
2023-07-03T09:58:16.324Z,101123.81
2023-07-03T10:00:56.435Z,101127.81
2023-07-03T10:03:30.862Z,101124.81
2023-07-03T10:12:12.783Z,101122.41
2023-07-03T10:14:56.954Z,101151.59
2023-07-03T10:17:35.206Z,101137.69
2023-07-03T10:20:10.960Z,101141.34
2023-07-03T10:22:44.457Z,101133.69
2023-07-03T10:25:21.984Z,101132.50
2023-07-03T10:27:56.194Z,101143.91
2023-07-03T10:30:26.037Z,101133.91
2023-07-03T10:35:44.051Z,101130.16
2023-07-03T10:38:47.316Z,101132.75
2023-07-03T10:41:51.666Z,101137.22
2023-07-03T10:44:25.259Z,101140.69
2023-07-03T10:47:22.061Z,101141.72
2023-07-03T10:49:48.778Z,101145.00
2023-07-03T10:52:21.877Z,101150.03
2023-07-03T10:55:05.102Z,101150.72
2023-07-03T10:57:59.282Z,101157.69
2023-07-03T11:00:40.222Z,101146.97
2023-07-03T11:03:28.650Z,101150.19
2023-07-03T11:06:09.996Z,101156.53
2023-07-03T11:08:58.949Z,101154.88
2023-07-03T11:11:46.076Z,101160.53
2023-07-03T11:14:27.144Z,101166.22
2023-07-03T11:16:56.835Z,101167.28
2023-07-03T11:22:51.123Z,101166.41
2023-07-03T11:25:31.124Z,101165.66
2023-07-03T11:28:11.208Z,101167.97
2023-07-03T11:30:43.165Z,101157.94
2023-07-03T11:33:11.760Z,101162.84
2023-07-03T11:35:54.252Z,101155.84
2023-07-03T11:40:58.169Z,101137.91
2023-07-03T11:43:31.062Z,101141.53
2023-07-03T11:45:57.585Z,101142.16
2023-07-03T11:48:27.110Z,101152.13
2023-07-03T11:51:03.114Z,101135.59
2023-07-03T11:53:36.812Z,101140.06
2023-07-03T11:56:06.307Z,101136.38
2023-07-03T11:58:35.126Z,101143.44
2023-07-03T12:01:28.233Z,101150.38
2023-07-03T12:04:03.946Z,101145.09
2023-07-03T12:06:51.562Z,101141.34
2023-07-03T12:09:24.192Z,101149.25
2023-07-03T12:12:08.857Z,101155.72
2023-07-03T12:14:41.489Z,101151.34
2023-07-03T12:17:35.536Z,101160.75
2023-07-03T12:20:21.710Z,101157.81
2023-07-03T12:22:51.369Z,101162.63
2023-07-03T12:25:30.229Z,101162.75
2023-07-03T12:28:11.061Z,101152.59
2023-07-03T12:30:38.516Z,101151.44
2023-07-03T12:33:05.439Z,101146.44
2023-07-03T12:35:36.465Z,101145.34
2023-07-03T12:38:08.422Z,101164.50
2023-07-03T12:40:45.379Z,101152.59
2023-07-03T12:43:20.128Z,101163.41
2023-07-03T12:45:55.050Z,101154.50
2023-07-03T12:48:23.851Z,101156.88
2023-07-03T12:50:56.631Z,101158.63
2023-07-03T12:53:24.797Z,101160.44
2023-07-03T12:56:11.569Z,101165.09
2023-07-03T12:58:38.804Z,101157.84
2023-07-03T13:01:09.077Z,101166.41
2023-07-03T13:03:41.216Z,101163.69
2023-07-03T13:06:27.393Z,101176.44
2023-07-03T13:08:55.996Z,101166.16
2023-07-03T13:11:46.994Z,101177.03
2023-07-03T13:14:23.064Z,101161.25
2023-07-03T13:16:52.630Z,101159.78
2023-07-03T13:19:36.543Z,101160.13
2023-07-03T13:22:08.098Z,101162.63
2023-07-03T13:24:43.089Z,101161.38
2023-07-03T13:27:24.625Z,101160.72
2023-07-03T13:29:56.628Z,101163.97
2023-07-03T13:32:24.579Z,101156.16
2023-07-03T13:35:06.303Z,101163.28
2023-07-03T13:37:37.165Z,101163.09
2023-07-03T13:40:04.917Z,101169.31
2023-07-03T13:42:32.027Z,101179.09
2023-07-03T13:44:58.958Z,101170.94
2023-07-03T13:47:28.603Z,101192.44
2023-07-03T13:49:56.149Z,101192.63
2023-07-03T13:52:22.735Z,101203.56
2023-07-03T13:54:49.421Z,101198.06
2023-07-03T13:57:16.014Z,101204.63
2023-07-03T13:59:42.602Z,101205.91
2023-07-03T14:02:09.265Z,101190.47
2023-07-03T14:04:36.048Z,101182.75
2023-07-03T14:07:02.646Z,101200.84
2023-07-03T14:09:29.233Z,101182.19
2023-07-03T14:11:55.814Z,101177.53
2023-07-03T14:14:22.654Z,101183.69
2023-07-03T14:16:50.450Z,101175.59
2023-07-03T14:19:17.060Z,101180.13
2023-07-03T14:21:43.801Z,101165.84
2023-07-03T14:24:10.522Z,101158.66
2023-07-03T14:26:37.211Z,101169.97
2023-07-03T14:29:03.835Z,101164.41
2023-07-03T14:31:30.569Z,101158.09
2023-07-03T14:33:57.234Z,101150.88
2023-07-03T14:36:23.918Z,101155.00
2023-07-03T14:38:50.745Z,101146.66
2023-07-03T14:41:17.650Z,101143.56
2023-07-03T14:43:44.415Z,101157.31
2023-07-03T14:46:10.965Z,101147.22
2023-07-03T14:48:37.561Z,101156.47
2023-07-03T14:51:04.586Z,101154.94
2023-07-03T14:53:31.321Z,101144.91
2023-07-03T14:56:01.850Z,101150.47
2023-07-03T14:58:30.091Z,101148.28
2023-07-03T15:01:02.180Z,101150.09
2023-07-03T15:03:29.355Z,101148.03
2023-07-03T15:05:56.081Z,101154.81
2023-07-03T15:08:22.704Z,101159.97
2023-07-03T15:10:49.284Z,101156.53
2023-07-03T15:13:16.752Z,101147.44
2023-07-03T15:15:51.129Z,101142.56
2023-07-03T15:18:18.258Z,101144.00
2023-07-03T15:20:46.778Z,101132.59
2023-07-03T15:23:15.529Z,101131.13
2023-07-03T15:25:42.774Z,101124.75
2023-07-03T15:28:09.357Z,101128.75
2023-07-03T15:30:39.603Z,101122.28
2023-07-03T15:33:06.891Z,101130.63
2023-07-03T15:35:33.512Z,101125.16
2023-07-03T15:38:00.064Z,101124.88
2023-07-03T15:40:26.907Z,101121.22
2023-07-03T15:42:54.242Z,101122.72
2023-07-03T15:45:23.135Z,101119.50
2023-07-03T15:47:50.164Z,101111.59
2023-07-03T15:50:16.993Z,101114.84
2023-07-03T15:52:43.581Z,101115.44
2023-07-03T15:55:10.153Z,101124.88
2023-07-03T15:57:36.827Z,101125.59
2023-07-03T16:00:04.312Z,101116.97
2023-07-03T16:02:30.934Z,101121.00
2023-07-03T16:04:57.582Z,101118.06
2023-07-03T16:07:24.222Z,101092.09
2023-07-03T16:09:50.791Z,101105.63
2023-07-03T16:12:17.440Z,101104.00
2023-07-03T16:14:44.482Z,101099.38
2023-07-03T16:17:11.144Z,101088.22
2023-07-03T16:19:37.811Z,101095.44
2023-07-03T16:22:04.655Z,101098.59
2023-07-03T16:24:31.453Z,101104.28
2023-07-03T16:26:57.999Z,101090.34
2023-07-03T16:29:24.629Z,101087.66
2023-07-03T16:31:51.299Z,101081.28
2023-07-03T16:34:17.925Z,101080.09
2023-07-03T16:36:44.536Z,101079.88
2023-07-03T16:39:11.135Z,101079.13
2023-07-03T16:41:39.888Z,101075.25
2023-07-03T16:44:06.623Z,101062.28
2023-07-03T16:46:36.978Z,101062.16
2023-07-03T16:49:05.688Z,101053.19
2023-07-03T16:51:32.345Z,101062.50
2023-07-03T16:53:58.961Z,101055.13
2023-07-03T16:56:28.079Z,101048.88
2023-07-03T16:59:00.518Z,101052.97
2023-07-03T17:01:29.441Z,101039.25
2023-07-03T17:03:56.873Z,101045.63
2023-07-03T17:06:31.473Z,101049.84
2023-07-03T17:08:59.193Z,101048.56
2023-07-03T17:11:26.373Z,101043.25
2023-07-03T17:13:53.201Z,101046.38
2023-07-03T17:16:20.702Z,101042.06
2023-07-03T17:18:47.383Z,101038.81
2023-07-03T17:21:14.079Z,101030.28
2023-07-03T17:23:40.784Z,101029.53
2023-07-03T17:26:07.458Z,101024.13
2023-07-03T17:28:34.040Z,101030.03
2023-07-03T17:31:05.324Z,101027.34
2023-07-03T17:33:33.430Z,101024.63
2023-07-03T17:36:02.240Z,101021.31
2023-07-03T17:38:29.387Z,101008.78
2023-07-03T17:40:58.140Z,101012.44
2023-07-03T17:43:24.722Z,101013.31
2023-07-03T17:45:54.411Z,101016.97
2023-07-03T17:48:22.294Z,101013.31
2023-07-03T17:50:50.419Z,100997.09
2023-07-03T17:53:17.459Z,100994.28
2023-07-03T17:55:44.770Z,100996.53
2023-07-03T17:58:11.701Z,100989.34
2023-07-03T18:00:38.320Z,100987.81
2023-07-03T18:03:05.938Z,100993.22
2023-07-03T18:05:34.388Z,100989.53
2023-07-03T18:08:01.475Z,100989.75
2023-07-03T18:10:30.583Z,100990.63
2023-07-03T18:12:58.426Z,100990.63
2023-07-03T18:15:32.345Z,100981.53
2023-07-03T18:18:06.412Z,100980.03
2023-07-03T18:20:33.408Z,100974.00
2023-07-03T18:23:00.031Z,100981.53
2023-07-03T18:25:26.726Z,100984.69
2023-07-03T18:27:53.433Z,100974.84
2023-07-03T18:30:20.119Z,100974.00
2023-07-03T18:32:46.999Z,100979.69
2023-07-03T18:35:13.815Z,100981.88
2023-07-03T18:37:40.575Z,100984.22
2023-07-03T18:40:07.748Z,100979.25
2023-07-03T18:42:34.372Z,100981.91
2023-07-03T18:45:01.077Z,100977.56
2023-07-03T18:47:30.921Z,100978.44
2023-07-03T18:49:58.462Z,100992.06
2023-07-03T18:52:25.693Z,100984.94
2023-07-03T18:54:53.170Z,100995.50
2023-07-03T18:57:20.038Z,101005.66
2023-07-03T18:59:47.227Z,101006.16
2023-07-03T19:02:16.092Z,100987.78
2023-07-03T19:04:47.021Z,101004.19
2023-07-03T19:07:13.955Z,101009.13
2023-07-03T19:09:40.800Z,101012.03
2023-07-03T19:12:10.581Z,101009.66
2023-07-03T19:14:37.207Z,101014.03
2023-07-03T19:17:05.025Z,101014.81
2023-07-03T19:19:31.818Z,101012.06
2023-07-03T19:21:58.408Z,101028.75
2023-07-03T19:24:25.038Z,101019.84
2023-07-03T19:26:51.649Z,101036.16
2023-07-03T19:29:18.277Z,101040.75
2023-07-03T19:31:44.933Z,101048.81
2023-07-03T19:34:12.177Z,101060.34
2023-07-03T19:36:38.813Z,101061.97
2023-07-03T19:39:05.517Z,101073.94
2023-07-03T19:41:32.095Z,101090.88
2023-07-03T19:43:59.786Z,101085.53
2023-07-03T19:46:26.638Z,101083.91
2023-07-03T19:48:53.354Z,101086.09
2023-07-03T19:51:20.011Z,101089.63
2023-07-03T19:53:49.802Z,101084.53
2023-07-03T19:56:21.557Z,101081.25
2023-07-03T19:58:48.907Z,101087.81
2023-07-03T20:01:17.291Z,101092.47
2023-07-03T20:03:44.437Z,101068.78
2023-07-03T20:06:23.487Z,101067.28
2023-07-03T20:08:54.857Z,101075.34
2023-07-03T20:11:22.417Z,101069.38
2023-07-03T20:13:50.885Z,101063.19
2023-07-03T20:16:19.501Z,101064.06
2023-07-03T20:18:55.542Z,101070.22
2023-07-03T20:21:23.195Z,101078.22
2023-07-03T20:23:53.288Z,101068.41
2023-07-03T20:26:20.221Z,101064.59
2023-07-03T20:28:47.158Z,101064.28
2023-07-03T20:31:15.759Z,101074.25
2023-07-03T20:33:42.711Z,101061.59
2023-07-03T20:36:13.209Z,101074.94
2023-07-03T20:38:40.771Z,101078.81
2023-07-03T20:41:11.859Z,101105.81
2023-07-03T20:43:41.813Z,101106.56
2023-07-03T20:46:14.871Z,101119.03
2023-07-03T20:48:42.612Z,101097.66
2023-07-03T20:51:14.190Z,101104.03
2023-07-03T20:53:49.493Z,101096.69
2023-07-03T20:56:18.459Z,101076.84
2023-07-03T20:58:47.690Z,101088.38
2023-07-03T21:01:17.216Z,101091.16
2023-07-03T21:03:46.580Z,101090.34
2023-07-03T21:06:18.083Z,101086.56
2023-07-03T21:08:46.829Z,101098.97
2023-07-03T21:11:15.909Z,101087.53
2023-07-03T21:13:43.970Z,101094.63
2023-07-03T21:16:12.763Z,101081.13
2023-07-03T21:18:40.151Z,101090.84
2023-07-03T21:21:20.467Z,101093.53
2023-07-03T21:23:48.373Z,101089.09
2023-07-03T21:26:21.927Z,101098.09
2023-07-03T21:28:50.388Z,101089.34
2023-07-03T21:31:20.130Z,101092.88
2023-07-03T21:33:47.000Z,101084.31
2023-07-03T21:36:17.473Z,101087.13
2023-07-03T21:38:44.576Z,101091.47
2023-07-03T21:41:16.225Z,101101.44
2023-07-03T21:43:54.143Z,101105.94
2023-07-03T21:46:23.625Z,101115.06
2023-07-03T21:48:53.725Z,101116.28
2023-07-03T21:51:21.156Z,101122.59
2023-07-03T21:53:47.877Z,101118.09
2023-07-03T21:56:21.037Z,101126.22
2023-07-03T21:58:50.601Z,101111.47
2023-07-03T22:01:30.234Z,101110.59
2023-07-03T22:03:58.473Z,101113.59
2023-07-03T22:06:27.145Z,101118.47
2023-07-03T22:08:54.801Z,101111.78
2023-07-03T22:11:22.753Z,101118.34
2023-07-03T22:13:49.471Z,101118.47
2023-07-03T22:16:17.928Z,101108.94
2023-07-03T22:18:45.746Z,101108.34
2023-07-03T22:21:13.590Z,101108.34
2023-07-03T22:23:40.386Z,101104.00
2023-07-03T22:26:08.043Z,101101.56
2023-07-03T22:28:34.728Z,101100.03
2023-07-03T22:31:01.456Z,101110.00
2023-07-03T22:33:29.266Z,101107.47
2023-07-03T22:35:56.192Z,101107.59
2023-07-03T22:38:23.100Z,101108.53
2023-07-03T22:40:51.712Z,101117.53
2023-07-03T22:43:20.846Z,101115.78
2023-07-03T22:45:48.508Z,101112.34
2023-07-03T22:48:15.938Z,101113.28
2023-07-03T22:50:43.351Z,101117.75
2023-07-03T22:53:11.636Z,101116.88
2023-07-03T22:55:42.150Z,101116.97
2023-07-03T22:58:10.317Z,101119.63
2023-07-03T23:00:40.455Z,101128.69
2023-07-03T23:03:08.472Z,101119.91
2023-07-03T23:05:45.876Z,101118.28
2023-07-03T23:08:17.688Z,101120.88
2023-07-03T23:10:52.392Z,101121.88
2023-07-03T23:13:21.903Z,101128.19
2023-07-03T23:15:57.030Z,101130.88
2023-07-03T23:18:24.150Z,101129.19
2023-07-03T23:20:55.895Z,101128.41
2023-07-03T23:23:22.870Z,101129.25
2023-07-03T23:25:57.953Z,101133.06
2023-07-03T23:28:32.449Z,101139.34
2023-07-03T23:31:03.363Z,101139.28
2023-07-03T23:33:33.635Z,101138.31
2023-07-03T23:36:06.015Z,101138.31
2023-07-03T23:38:33.897Z,101142.81
2023-07-03T23:41:00.540Z,101132.88
2023-07-03T23:43:27.747Z,101130.44
2023-07-03T23:45:55.874Z,101123.53
2023-07-03T23:48:23.491Z,101132.31
2023-07-03T23:50:55.670Z,101134.94
2023-07-03T23:53:24.560Z,101124.22
2023-07-03T23:55:53.956Z,101133.06
2023-07-03T23:58:22.923Z,101136.50
